createdAt,value
2019-03-23T00:06:30.603Z,11088.1
2019-03-23T00:16:25.328Z,11088.1
2019-03-23T00:26:24.540Z,11088.2
2019-03-23T00:36:23.752Z,11088.3
2019-03-23T00:46:22.968Z,11088.3
2019-03-23T00:56:22.242Z,11088.4
2019-03-23T01:06:21.556Z,11088.5
2019-03-23T01:16:20.872Z,11088.6
2019-03-23T01:26:20.192Z,11088.6
2019-03-23T01:36:19.508Z,11088.7
2019-03-23T01:46:18.822Z,11088.7
2019-03-23T01:56:18.036Z,11088.8
2019-03-23T02:06:17.250Z,11088.9
2019-03-23T02:16:16.463Z,11089
2019-03-23T02:26:15.676Z,11089.1
2019-03-23T02:36:14.891Z,11089.1
2019-03-23T02:46:14.104Z,11089.2
2019-03-23T02:56:13.318Z,11089.2
2019-03-23T03:06:12.532Z,11089.3
2019-03-23T03:19:54.373Z,11089.3
2019-03-23T03:31:49.423Z,11089.3
2019-03-23T03:41:48.635Z,11089.4
2019-03-23T03:51:47.847Z,11089.4
2019-03-23T04:16:39.514Z,11089.2
2019-03-23T04:26:39.384Z,11089.3
2019-03-23T04:36:37.943Z,11089.4
2019-03-23T04:46:37.146Z,11089.5
2019-03-23T04:56:36.360Z,11089.5
2019-03-23T05:06:35.568Z,11089.6
2019-03-23T05:16:34.851Z,11089.6
2019-03-23T05:26:34.169Z,11089.7
2019-03-23T05:36:33.486Z,11089.8
2019-03-23T05:46:32.796Z,11089.8
2019-03-23T05:56:32.113Z,11089.9
2019-03-23T06:06:31.433Z,11089.9
2019-03-23T06:16:30.643Z,11090
2019-03-23T06:26:29.856Z,11090.1
2019-03-23T06:36:29.071Z,11090.1
2019-03-23T06:46:28.286Z,11090.2
2019-03-23T06:56:27.498Z,11090.2
2019-03-23T07:06:26.712Z,11090.3
2019-03-23T07:16:25.928Z,11090.3
2019-03-23T07:26:25.145Z,11090.4
2019-03-23T07:36:24.358Z,11090.4
2019-03-23T07:46:23.575Z,11090.5
2019-03-23T07:56:22.791Z,11090.5
2019-03-23T08:06:22.008Z,11090.5
2019-03-23T08:16:21.220Z,11090.6
2019-03-23T08:26:20.435Z,11090.6
2019-03-23T08:36:19.659Z,11090.6
2019-03-23T08:46:18.866Z,11090.7
2019-03-23T08:56:18.083Z,11090.7
2019-03-23T09:06:17.299Z,11090.7
2019-03-23T09:16:16.520Z,11090.7
2019-03-23T09:26:16.475Z,11090.8
2019-03-23T09:36:15.691Z,11090.8
2019-03-23T09:46:14.912Z,11090.8
2019-03-23T09:56:14.124Z,11090.8
2019-03-23T10:06:13.341Z,11090.8
2019-03-23T10:16:12.559Z,11090.9
2019-03-23T10:26:11.778Z,11090.9
2019-03-23T10:36:12.244Z,11090.9
2019-03-23T10:46:10.209Z,11090.9
2019-03-23T10:56:09.418Z,11090.9
2019-03-23T11:06:08.637Z,11091
2019-03-23T11:16:07.853Z,11091
2019-03-23T11:26:07.076Z,11091
2019-03-23T11:36:06.300Z,11091
2019-03-23T11:46:05.518Z,11091
2019-03-23T11:56:04.744Z,11091
2019-03-23T12:06:03.963Z,11091
2019-03-23T12:16:03.184Z,11091
2019-03-23T12:26:02.401Z,11091
2019-03-23T12:36:01.623Z,11091
2019-03-23T12:46:00.842Z,11091
2019-03-23T12:56:00.054Z,11091.1
2019-03-23T13:05:59.270Z,11091.1
2019-03-23T13:15:58.496Z,11091.1
2019-03-23T13:25:57.703Z,11091.1
2019-03-23T13:35:56.923Z,11091.1
2019-03-23T13:45:56.139Z,11091.2
2019-03-23T13:55:55.356Z,11091.2
2019-03-23T14:05:54.572Z,11091.2
2019-03-23T14:15:53.788Z,11091.2
2019-03-23T14:25:53.005Z,11091.2
2019-03-23T14:35:52.224Z,11091.3
2019-03-23T14:52:05.460Z,11091.2
2019-03-23T15:02:04.673Z,11091.2
2019-03-23T15:12:03.891Z,11091.3
2019-03-23T15:22:03.106Z,11091.3
2019-03-23T15:31:44.347Z,11091.2
2019-03-23T15:41:43.564Z,11091.2
2019-03-23T15:51:42.783Z,11091.3
2019-03-23T16:01:41.999Z,11091.3
2019-03-23T16:11:41.227Z,11091.3
2019-03-23T16:21:40.444Z,11091.3
2019-03-23T16:31:39.736Z,11091.4
2019-03-23T16:41:39.056Z,11091.4
2019-03-23T16:51:38.379Z,11091.4
2019-03-23T17:01:37.702Z,11091.5
2019-03-23T17:11:37.041Z,11091.5
2019-03-23T17:21:36.355Z,11091.5
2019-03-23T17:31:35.575Z,11091.6
2019-03-23T17:41:34.789Z,11091.6
2019-03-23T17:51:34.009Z,11091.7
2019-03-23T18:01:33.230Z,11091.7
2019-03-23T18:11:33.742Z,11091.8
2019-03-23T18:21:32.943Z,11091.8
2019-03-23T18:31:32.162Z,11091.9
2019-03-23T18:41:31.379Z,11091.9
2019-03-23T18:51:30.597Z,11092
2019-03-23T19:05:36.325Z,11091.9
2019-03-23T19:15:35.549Z,11092
2019-03-23T19:25:34.759Z,11092
2019-03-23T19:39:14.423Z,11091.9
2019-03-23T19:49:13.640Z,11091.9
2019-03-23T19:59:12.865Z,11092
2019-03-23T20:09:12.076Z,11092.1
2019-03-23T20:19:11.306Z,11092.1
2019-03-23T20:34:54.329Z,11091.9
2019-03-23T20:44:53.548Z,11091.9
2019-03-23T20:54:52.766Z,11092
2019-03-23T21:04:51.985Z,11092
2019-03-23T21:16:00.181Z,11091.9
2019-03-23T21:25:59.399Z,11091.9
2019-03-23T21:35:58.617Z,11092
2019-03-23T21:45:57.834Z,11092
2019-03-23T21:55:57.053Z,11092.1
2019-03-23T22:05:56.273Z,11092.1
2019-03-23T22:15:55.549Z,11092.2
2019-03-23T22:25:54.867Z,11092.3
2019-03-23T22:35:54.190Z,11092.3
2019-03-23T22:45:53.509Z,11092.4
2019-03-23T22:55:52.828Z,11092.4
2019-03-23T23:05:52.156Z,11092.5
2019-03-23T23:15:51.412Z,11092.5
2019-03-23T23:25:50.589Z,11092.6
2019-03-23T23:35:49.802Z,11092.6
2019-03-23T23:45:49.020Z,11092.7
2019-03-23T23:55:48.237Z,11092.7
